North Blenheim, New York
Current Conditions -  °F | °C
As of 12:35 AM on Saturday 25 Oct 2014 (Local Time) from KNY0 Reporting Station
Clear Clear  
Wind Chill: 36°   Ceiling: Unl
Heat Index: 41°   Visibility: 10mi
Dew Point: 39°   Wind: 8mph
Humidity: 93%   Direction: 270°W
Pressure: 29.86"   Gusts: NA
Location:  42.47°N, 74.45°W
Report Text: KNY0 250435Z AUTO 27007KT 10SM CLR 05/04 A2986 RMK AO2 T00520041
Loading
Personal Weather Stations






























Interactive Weather Map
Tropical Storm Tracking
New forecast layout! Learn more

10-Day Weather Forecast

Advertisements
Track Severe Weather on mobile